createdAt,value
2018-12-25T00:01:56.374Z,98796.05
2018-12-25T00:05:03.368Z,98797.97
2018-12-25T00:08:10.276Z,98804.67
2018-12-25T00:11:17.212Z,98803.80
2018-12-25T00:14:24.082Z,98803.46
2018-12-25T00:17:30.857Z,98803.30
2018-12-25T00:20:37.948Z,98810.59
2018-12-25T00:23:48.903Z,98809.63
2018-12-25T00:26:55.886Z,98820.08
2018-12-25T00:30:02.996Z,98814.13
2018-12-25T00:33:09.990Z,98815.82
2018-12-25T00:36:16.747Z,98817.63
2018-12-25T00:39:25.502Z,98820.16
2018-12-25T00:42:32.282Z,98813.47
2018-12-25T00:45:38.994Z,98821.61
2018-12-25T00:48:45.789Z,98817.02
2018-12-25T00:51:52.535Z,98812.68
2018-12-25T00:54:59.254Z,98812.41
2018-12-25T00:58:06.174Z,98815.76
2018-12-25T01:01:13.026Z,98819.73
2018-12-25T01:04:19.882Z,98828.33
2018-12-25T01:07:26.799Z,98823.41
2018-12-25T01:10:33.690Z,98833.58
2018-12-25T01:13:41.521Z,98835.34
2018-12-25T01:16:48.713Z,98835.63
2018-12-25T01:19:55.675Z,98838.02
2018-12-25T01:23:02.564Z,98836.41
2018-12-25T01:26:09.785Z,98836.10
2018-12-25T01:29:16.752Z,98840.42
2018-12-25T01:32:24.072Z,98844.02
2018-12-25T01:35:30.999Z,98840.86
2018-12-25T01:38:37.723Z,98847.20
2018-12-25T01:41:45.561Z,98836.77
2018-12-25T01:44:52.552Z,98841.42
2018-12-25T01:47:59.463Z,98842.77
2018-12-25T01:51:06.626Z,98838.11
2018-12-25T01:54:13.340Z,98843.31
2018-12-25T01:57:20.126Z,98843.47
2018-12-25T02:00:26.815Z,98845.84
2018-12-25T02:03:33.541Z,98848.36
2018-12-25T02:06:41.302Z,98852.00
2018-12-25T02:09:48.034Z,98855.50
2018-12-25T02:12:54.717Z,98860.03
2018-12-25T02:16:01.710Z,98855.22
2018-12-25T02:19:08.644Z,98849.63
2018-12-25T02:22:15.565Z,98846.16
2018-12-25T02:25:22.618Z,98847.18
2018-12-25T02:28:29.630Z,98855.38
2018-12-25T02:31:36.510Z,98851.33
2018-12-25T02:34:44.156Z,98859.80
2018-12-25T02:37:51.163Z,98852.98
2018-12-25T02:40:58.052Z,98864.22
2018-12-25T02:44:05.064Z,98861.14
2018-12-25T02:47:12.103Z,98856.50
2018-12-25T02:50:18.993Z,98841.75
2018-12-25T02:53:25.984Z,98842.18
2018-12-25T02:56:32.636Z,98840.56
2018-12-25T02:59:39.830Z,98832.48
2018-12-25T03:02:47.852Z,98827.90
2018-12-25T03:05:54.788Z,98820.33
2018-12-25T03:09:01.716Z,98824.95
2018-12-25T03:12:08.874Z,98822.70
2018-12-25T03:15:16.522Z,98819.50
2018-12-25T03:18:23.280Z,98822.46
2018-12-25T03:21:29.984Z,98826.33
2018-12-25T03:24:37.958Z,98818.09
2018-12-25T03:27:45.300Z,98818.64
2018-12-25T03:30:52.310Z,98819.91
2018-12-25T03:33:58.997Z,98814.45
2018-12-25T03:37:06.318Z,98820.69
2018-12-25T03:40:13.382Z,98820.22
2018-12-25T03:43:20.398Z,98821.91
2018-12-25T03:46:28.242Z,98818.99
2018-12-25T03:49:35.175Z,98815.88
2018-12-25T03:52:42.341Z,98816.08
2018-12-25T03:55:49.318Z,98816.55
2018-12-25T03:58:56.011Z,98809.61
2018-12-25T04:02:03.009Z,98808.70
2018-12-25T04:05:09.936Z,98804.92
2018-12-25T04:08:16.918Z,98797.31
2018-12-25T04:11:24.098Z,98794.91
2018-12-25T04:14:30.834Z,98794.16
2018-12-25T04:17:37.556Z,98791.27
2018-12-25T04:20:45.098Z,98793.53
2018-12-25T04:23:52.155Z,98787.42
2018-12-25T04:26:58.849Z,98784.45
2018-12-25T04:30:05.883Z,98795.61
2018-12-25T04:33:12.854Z,98800.27
2018-12-25T04:36:20.059Z,98801.96
2018-12-25T04:39:27.251Z,98791.08
2018-12-25T04:42:34.415Z,98802.39
2018-12-25T04:45:42.686Z,98801.61
2018-12-25T04:48:49.573Z,98813.27
2018-12-25T04:51:56.270Z,98816.00
2018-12-25T04:55:03.382Z,98826.92
2018-12-25T04:58:10.101Z,98831.41
2018-12-25T05:01:17.014Z,98822.03
2018-12-25T05:04:23.941Z,98834.41
2018-12-25T05:07:30.865Z,98831.77
2018-12-25T05:10:37.760Z,98837.36
2018-12-25T05:13:45.346Z,98836.53
2018-12-25T05:16:52.254Z,98824.19
2018-12-25T05:19:59.227Z,98815.32
2018-12-25T05:23:06.264Z,98815.91
2018-12-25T05:26:13.152Z,98822.18
2018-12-25T05:29:20.148Z,98814.69
2018-12-25T05:32:27.312Z,98807.75
2018-12-25T05:35:34.285Z,98815.32
2018-12-25T05:38:42.471Z,98818.00
2018-12-25T05:41:49.594Z,98811.80
2018-12-25T05:44:56.268Z,98807.47
2018-12-25T05:48:03.219Z,98811.34
2018-12-25T05:51:10.101Z,98811.80
2018-12-25T05:54:17.006Z,98813.93
2018-12-25T05:57:24.008Z,98817.40
2018-12-25T06:00:31.024Z,98822.33
2018-12-25T06:03:37.953Z,98824.31
2018-12-25T06:06:45.271Z,98825.80
2018-12-25T06:09:52.276Z,98836.33
2018-12-25T06:12:59.017Z,98841.78
2018-12-25T06:16:05.973Z,98829.27
2018-12-25T06:19:12.889Z,98823.63
2018-12-25T06:22:19.770Z,98815.62
2018-12-25T06:25:26.705Z,98812.75
2018-12-25T06:28:33.414Z,98807.70
2018-12-25T06:31:40.291Z,98798.46
2018-12-25T06:34:47.261Z,98811.87
2018-12-25T06:37:54.219Z,98812.86
2018-12-25T06:41:01.131Z,98809.86
2018-12-25T06:44:08.274Z,98814.55
2018-12-25T06:47:15.281Z,98813.22
2018-12-25T06:50:22.248Z,98805.25
2018-12-25T06:53:29.151Z,98806.91
2018-12-25T06:56:36.069Z,98803.98
2018-12-25T06:59:43.360Z,98804.06
2018-12-25T07:02:50.089Z,98804.56
2018-12-25T07:05:56.784Z,98809.61
2018-12-25T07:09:04.167Z,98810.37
2018-12-25T07:12:11.356Z,98804.13
2018-12-25T07:15:18.070Z,98803.23
2018-12-25T07:18:24.759Z,98805.28
2018-12-25T07:21:31.765Z,98798.22
2018-12-25T07:24:38.648Z,98796.55
2018-12-25T07:27:45.561Z,98796.98
2018-12-25T07:30:52.443Z,98802.94
2018-12-25T07:33:59.633Z,98802.83
2018-12-25T07:37:06.309Z,98797.74
2018-12-25T07:40:13.321Z,98798.29
2018-12-25T07:43:20.241Z,98795.69
2018-12-25T07:46:27.422Z,98797.45
2018-12-25T07:49:34.387Z,98811.30
2018-12-25T07:52:41.580Z,98807.23
2018-12-25T07:55:48.463Z,98816.98
2018-12-25T07:58:55.608Z,98822.85
2018-12-25T08:02:02.392Z,98823.22
2018-12-25T08:05:09.152Z,98821.13
2018-12-25T08:08:15.828Z,98823.14
2018-12-25T08:11:22.565Z,98814.66
2018-12-25T08:14:29.251Z,98807.92
2018-12-25T08:17:36.238Z,98809.28
2018-12-25T08:20:43.219Z,98808.75
2018-12-25T08:23:50.189Z,98794.97
2018-12-25T08:26:57.186Z,98786.92
2018-12-25T08:30:03.913Z,98787.94
2018-12-25T08:33:10.843Z,98789.59
2018-12-25T08:36:17.807Z,98789.63
2018-12-25T08:39:24.767Z,98789.70
2018-12-25T08:42:31.499Z,98773.53
2018-12-25T08:45:38.138Z,98781.40
2018-12-25T08:48:45.634Z,98793.30
2018-12-25T08:51:52.605Z,98801.34
2018-12-25T08:54:59.833Z,98805.20
2018-12-25T08:58:06.536Z,98806.97
2018-12-25T09:01:13.576Z,98795.64
2018-12-25T09:04:20.480Z,98796.11
2018-12-25T09:07:27.419Z,98803.29
2018-12-25T09:10:34.062Z,98809.64
2018-12-25T09:13:41.219Z,98796.17
2018-12-25T09:16:48.200Z,98791.95
2018-12-25T09:19:55.117Z,98776.86
2018-12-25T09:23:02.131Z,98777.33
2018-12-25T09:26:09.293Z,98770.28
2018-12-25T09:29:16.018Z,98776.66
2018-12-25T09:32:23.026Z,98784.74
2018-12-25T09:35:29.959Z,98785.64
2018-12-25T09:38:36.917Z,98785.34
2018-12-25T09:41:44.111Z,98779.55
2018-12-25T09:44:50.854Z,98774.49
2018-12-25T09:47:57.563Z,98787.93
2018-12-25T09:51:04.730Z,98781.24
2018-12-25T09:54:11.678Z,98779.58
2018-12-25T09:57:18.950Z,98774.95
2018-12-25T10:00:25.770Z,98780.97
2018-12-25T10:03:32.546Z,98781.77
2018-12-25T10:06:39.280Z,98794.14
2018-12-25T10:09:46.370Z,98806.75
2018-12-25T10:12:53.349Z,98812.60
2018-12-25T10:16:00.047Z,98796.20
2018-12-25T10:19:07.197Z,98798.23
2018-12-25T10:22:14.209Z,98800.36
2018-12-25T10:25:21.117Z,98799.06
2018-12-25T10:28:28.218Z,98813.06
2018-12-25T10:31:35.354Z,98808.88
2018-12-25T10:34:45.519Z,98802.48
2018-12-25T10:37:52.749Z,98800.42
2018-12-25T10:41:00.106Z,98798.36
2018-12-25T10:44:07.279Z,98803.85
2018-12-25T10:47:14.015Z,98803.88
2018-12-25T10:50:20.838Z,98796.73
2018-12-25T10:53:28.280Z,98791.20
2018-12-25T10:56:35.293Z,98778.17
2018-12-25T10:59:42.173Z,98776.47
2018-12-25T11:02:49.067Z,98772.71
2018-12-25T11:05:56.115Z,98779.46
2018-12-25T11:09:06.554Z,98769.41
2018-12-25T11:12:13.489Z,98779.95
2018-12-25T11:15:20.623Z,98778.30
2018-12-25T11:18:27.799Z,98780.39
2018-12-25T11:21:34.706Z,98776.19
2018-12-25T11:24:44.719Z,98775.39
2018-12-25T11:27:51.717Z,98766.20
2018-12-25T11:30:58.523Z,98758.61
2018-12-25T11:34:05.859Z,98752.35
2018-12-25T11:37:12.970Z,98752.38
2018-12-25T11:40:19.758Z,98752.88
2018-12-25T11:43:26.712Z,98754.94
2018-12-25T11:46:33.872Z,98749.88
2018-12-25T11:49:41.147Z,98747.88
2018-12-25T11:52:48.900Z,98751.17
2018-12-25T11:55:56.275Z,98755.74
2018-12-25T11:59:03.265Z,98753.13
2018-12-25T12:02:17.010Z,98745.08
2018-12-25T12:05:18.604Z,98752.75
2018-12-25T12:08:25.345Z,98749.85
2018-12-25T12:11:32.210Z,98746.58
2018-12-25T12:14:38.938Z,98747.91
2018-12-25T12:17:47.562Z,98743.16
2018-12-25T12:20:54.517Z,98746.12
2018-12-25T12:24:01.424Z,98739.36
2018-12-25T12:27:08.412Z,98745.77
2018-12-25T12:30:15.661Z,98749.54
2018-12-25T12:33:22.370Z,98752.91
2018-12-25T12:36:29.302Z,98747.93
2018-12-25T12:39:36.350Z,98754.74
2018-12-25T12:42:45.230Z,98758.13
2018-12-25T12:45:52.434Z,98753.48
2018-12-25T12:48:59.407Z,98750.14
2018-12-25T12:52:06.415Z,98745.92
2018-12-25T12:55:13.687Z,98747.61
2018-12-25T12:58:20.736Z,98752.70
2018-12-25T13:01:27.716Z,98757.36
2018-12-25T13:04:34.953Z,98751.34
2018-12-25T13:07:44.220Z,98755.69
2018-12-25T13:10:51.423Z,98761.98
2018-12-25T13:14:01.090Z,98767.02
2018-12-25T13:17:07.892Z,98777.16
2018-12-25T13:20:14.576Z,98776.24
2018-12-25T13:23:21.583Z,98778.89
2018-12-25T13:26:29.674Z,98783.09
2018-12-25T13:29:36.902Z,98778.40
2018-12-25T13:32:46.557Z,98781.76
2018-12-25T13:35:53.615Z,98784.70
2018-12-25T13:39:00.509Z,98785.98
2018-12-25T13:42:07.538Z,98793.20
2018-12-25T13:45:14.652Z,98787.66
2018-12-25T13:48:21.655Z,98791.08
2018-12-25T13:51:28.612Z,98786.84
2018-12-25T13:54:35.560Z,98789.84
2018-12-25T13:57:43.556Z,98795.33
2018-12-25T14:00:51.003Z,98798.27
2018-12-25T14:03:58.211Z,98807.09
2018-12-25T14:07:05.001Z,98808.38
2018-12-25T14:10:11.683Z,98815.16
2018-12-25T14:13:18.708Z,98812.64
2018-12-25T14:16:25.613Z,98818.93
2018-12-25T14:19:32.600Z,98822.78
2018-12-25T14:22:39.255Z,98824.94
2018-12-25T14:25:46.488Z,98833.37
2018-12-25T14:28:53.724Z,98835.92
2018-12-25T14:32:00.700Z,98834.17
2018-12-25T14:35:07.853Z,98830.38
2018-12-25T14:38:15.522Z,98837.10
2018-12-25T14:41:22.295Z,98823.99
2018-12-25T14:44:29.114Z,98832.02
2018-12-25T14:47:35.848Z,98823.98
2018-12-25T14:50:43.200Z,98824.83
2018-12-25T14:53:50.547Z,98820.56
2018-12-25T14:56:57.362Z,98826.49
2018-12-25T15:00:04.563Z,98825.63
2018-12-25T15:03:13.083Z,98821.44
2018-12-25T15:06:20.071Z,98820.59
2018-12-25T15:09:27.332Z,98822.30
2018-12-25T15:12:34.032Z,98826.03
2018-12-25T15:15:41.135Z,98829.05
2018-12-25T15:18:48.241Z,98826.98
2018-12-25T15:21:55.418Z,98829.05
2018-12-25T15:25:02.276Z,98826.98
2018-12-25T15:28:09.113Z,98832.97
2018-12-25T15:31:16.132Z,98825.25
2018-12-25T15:34:23.098Z,98832.04
2018-12-25T15:37:30.202Z,98831.55
2018-12-25T15:40:37.239Z,98828.99
2018-12-25T15:43:46.406Z,98826.46
2018-12-25T15:46:53.115Z,98833.67
2018-12-25T15:50:00.321Z,98836.09
2018-12-25T15:53:07.050Z,98827.73
2018-12-25T15:56:13.796Z,98834.52
2018-12-25T15:59:20.782Z,98831.92
2018-12-25T16:02:28.794Z,98836.17
2018-12-25T16:05:36.008Z,98837.41
2018-12-25T16:08:45.848Z,98838.64
2018-12-25T16:11:52.970Z,98830.28
2018-12-25T16:14:59.952Z,98833.59
2018-12-25T16:18:07.178Z,98821.77
2018-12-25T16:21:14.136Z,98833.16
2018-12-25T16:24:27.280Z,98833.16
2018-12-25T16:27:29.782Z,98831.58
2018-12-25T16:30:36.697Z,98832.75
2018-12-25T16:33:44.268Z,98828.19
2018-12-25T16:36:51.396Z,98824.36
2018-12-25T16:39:58.494Z,98823.96
2018-12-25T16:43:05.430Z,98819.70
2018-12-25T16:46:12.392Z,98826.92
2018-12-25T16:49:19.338Z,98823.44
2018-12-25T16:52:28.062Z,98811.72
2018-12-25T16:55:35.282Z,98821.41
2018-12-25T16:58:43.003Z,98820.17
2018-12-25T17:01:50.018Z,98834.82
2018-12-25T17:04:56.922Z,98831.92
2018-12-25T17:08:04.259Z,98836.17
2018-12-25T17:11:11.250Z,98842.44
2018-12-25T17:14:18.301Z,98842.96
2018-12-25T17:17:25.279Z,98843.27
2018-12-25T17:20:32.491Z,98842.01
2018-12-25T17:23:39.525Z,98847.50
2018-12-25T17:26:46.838Z,98845.80
2018-12-25T17:29:53.581Z,98854.72
2018-12-25T17:33:00.448Z,98859.31
2018-12-25T17:36:07.461Z,98857.59
2018-12-25T17:39:14.442Z,98864.80
2018-12-25T17:42:21.647Z,98860.95
2018-12-25T17:45:28.447Z,98863.48
2018-12-25T17:48:35.122Z,98866.37
2018-12-25T17:51:42.308Z,98863.84
2018-12-25T17:54:49.244Z,98869.80
2018-12-25T17:57:56.585Z,98873.84
2018-12-25T18:01:03.268Z,98875.90
2018-12-25T18:04:10.083Z,98873.80
2018-12-25T18:07:17.401Z,98879.66
2018-12-25T18:10:25.429Z,98874.50
2018-12-25T18:13:32.423Z,98875.73
2018-12-25T18:16:39.464Z,98881.52
2018-12-25T18:19:49.478Z,98883.16
2018-12-25T18:22:56.492Z,98891.88
2018-12-25T18:26:03.277Z,98889.94
2018-12-25T18:29:10.090Z,98882.69
2018-12-25T18:32:16.800Z,98885.08
2018-12-25T18:35:23.961Z,98886.21
2018-12-25T18:38:31.666Z,98881.83
2018-12-25T18:41:39.341Z,98884.28
2018-12-25T18:44:49.452Z,98887.31
2018-12-25T18:47:57.308Z,98880.69
2018-12-25T18:51:04.541Z,98884.88
2018-12-25T18:54:11.628Z,98872.60
2018-12-25T18:57:18.697Z,98874.59
2018-12-25T19:00:25.840Z,98867.28
2018-12-25T19:03:35.304Z,98875.59
2018-12-25T19:06:43.442Z,98864.52
2018-12-25T19:09:50.353Z,98860.86
2018-12-25T19:12:57.499Z,98867.05
2018-12-25T19:16:05.430Z,98865.28
2018-12-25T19:19:12.255Z,98863.25
2018-12-25T19:22:18.936Z,98858.46
2018-12-25T19:25:25.702Z,98856.58
2018-12-25T19:28:32.391Z,98854.61
2018-12-25T19:31:39.179Z,98852.42
2018-12-25T19:34:46.001Z,98847.39
2018-12-25T19:37:52.752Z,98849.42
2018-12-25T19:40:59.509Z,98860.00
2018-12-25T19:44:06.269Z,98865.89
2018-12-25T19:47:13.181Z,98856.24
2018-12-25T19:50:20.143Z,98855.91
2018-12-25T19:53:27.108Z,98862.33
2018-12-25T19:56:34.317Z,98855.58
2018-12-25T19:59:41.268Z,98849.30
2018-12-25T20:03:00.013Z,98848.45
2018-12-25T20:07:25.710Z,98847.59
2018-12-25T20:11:23.441Z,98853.45
2018-12-25T20:15:17.678Z,98846.36
2018-12-25T20:19:04.035Z,98845.56
2018-12-25T20:23:37.423Z,98852.75
2018-12-25T20:27:45.965Z,98835.91
2018-12-25T20:32:03.467Z,98842.73
2018-12-25T20:36:24.409Z,98843.84
2018-12-25T20:40:28.739Z,98840.88
2018-12-25T20:44:43.684Z,98836.22
2018-12-25T20:48:54.685Z,98833.63
2018-12-25T20:53:26.848Z,98833.29
2018-12-25T20:57:43.080Z,98847.59
2018-12-25T21:01:45.824Z,98832.12
2018-12-25T21:05:56.860Z,98835.81
2018-12-25T21:10:14.122Z,98832.89
2018-12-25T21:14:26.213Z,98824.11
2018-12-25T21:18:39.392Z,98830.89
2018-12-25T21:23:17.200Z,98825.44
2018-12-25T21:27:18.366Z,98823.77
2018-12-25T21:30:26.948Z,98831.02
2018-12-25T21:33:34.007Z,98819.27
2018-12-25T21:36:42.999Z,98818.84
2018-12-25T21:39:50.214Z,98821.86
2018-12-25T21:42:58.146Z,98822.27
2018-12-25T21:46:05.311Z,98819.27
2018-12-25T21:49:14.366Z,98825.13
2018-12-25T21:52:21.322Z,98822.64
2018-12-25T21:55:28.143Z,98817.48
2018-12-25T21:58:35.363Z,98813.29
2018-12-25T22:01:42.295Z,98813.26
2018-12-25T22:04:51.918Z,98810.77
2018-12-25T22:07:58.976Z,98812.05
2018-12-25T22:11:05.905Z,98820.47
2018-12-25T22:14:13.117Z,98814.49
2018-12-25T22:17:20.235Z,98812.95
2018-12-25T22:20:31.691Z,98806.59
2018-12-25T22:23:39.334Z,98812.15
2018-12-25T22:26:49.327Z,98807.52
2018-12-25T22:29:57.479Z,98802.41
2018-12-25T22:33:04.291Z,98800.31
2018-12-25T22:36:11.469Z,98800.43
2018-12-25T22:39:18.181Z,98795.28
2018-12-25T22:42:25.188Z,98789.36
2018-12-25T22:45:33.177Z,98782.66
2018-12-25T22:48:41.983Z,98779.34
2018-12-25T22:51:48.901Z,98778.81
2018-12-25T22:54:55.696Z,98769.94
2018-12-25T22:58:02.951Z,98769.07
2018-12-25T23:01:09.743Z,98758.55
2018-12-25T23:04:16.715Z,98768.55
2018-12-25T23:07:23.732Z,98762.26
2018-12-25T23:10:30.393Z,98767.28
2018-12-25T23:13:37.619Z,98776.19
2018-12-25T23:16:44.564Z,98775.23
2018-12-25T23:19:51.672Z,98778.69
2018-12-25T23:22:59.259Z,98776.19
2018-12-25T23:26:06.281Z,98773.17
2018-12-25T23:29:13.273Z,98774.91
2018-12-25T23:32:20.372Z,98774.90
2018-12-25T23:35:27.297Z,98775.80
2018-12-25T23:38:34.192Z,98781.63
2018-12-25T23:41:41.859Z,98771.57
2018-12-25T23:44:48.810Z,98756.80
2018-12-25T23:47:55.779Z,98759.70
2018-12-25T23:51:02.770Z,98757.11
2018-12-25T23:54:09.450Z,98756.73
2018-12-25T23:57:16.220Z,98753.78
